createdAt,value
2019-02-22T00:00:18.914Z,13.87
2019-02-22T00:02:46.739Z,14.02
2019-02-22T00:05:16.113Z,13.77
2019-02-22T00:07:45.384Z,13.46
2019-02-22T00:10:14.687Z,13.94
2019-02-22T00:12:44.021Z,13.88
2019-02-22T00:15:13.352Z,14.05
2019-02-22T00:17:42.728Z,14.09
2019-02-22T00:20:12.031Z,14.24
2019-02-22T00:22:41.380Z,14.23
2019-02-22T00:25:10.669Z,14.24
2019-02-22T00:27:39.961Z,14.00
2019-02-22T00:30:09.322Z,13.74
2019-02-22T00:32:38.667Z,13.66
2019-02-22T00:35:07.969Z,13.81
2019-02-22T00:37:37.283Z,14.00
2019-02-22T00:40:07.625Z,13.94
2019-02-22T00:42:37.079Z,14.09
2019-02-22T00:45:06.787Z,14.23
2019-02-22T00:47:36.223Z,14.00
2019-02-22T00:50:05.828Z,14.06
2019-02-22T00:52:35.343Z,13.79
2019-02-22T00:55:06.151Z,14.12
2019-02-22T00:57:35.627Z,14.41
2019-02-22T01:00:05.221Z,13.94
2019-02-22T01:02:34.552Z,14.15
2019-02-22T01:05:03.942Z,13.82
2019-02-22T01:07:33.334Z,13.86
2019-02-22T01:10:03.972Z,13.83
2019-02-22T01:12:33.348Z,13.17
2019-02-22T01:15:02.623Z,13.36
2019-02-22T01:17:31.979Z,13.42
2019-02-22T01:20:01.284Z,13.44
2019-02-22T01:22:30.653Z,13.69
2019-02-22T01:25:01.375Z,13.92
2019-02-22T01:27:31.808Z,13.91
2019-02-22T01:30:01.171Z,13.68
2019-02-22T01:32:30.479Z,13.99
2019-02-22T01:34:59.814Z,14.13
2019-02-22T01:37:29.099Z,13.81
2019-02-22T01:39:58.567Z,14.03
2019-02-22T01:42:29.581Z,13.84
2019-02-22T01:44:59.029Z,13.73
2019-02-22T01:47:28.276Z,13.92
2019-02-22T01:49:57.614Z,13.40
2019-02-22T01:52:27.011Z,13.57
2019-02-22T01:55:00.794Z,13.42
2019-02-22T01:57:27.510Z,13.49
2019-02-22T01:59:57.947Z,13.81
2019-02-22T02:02:27.260Z,13.48
2019-02-22T02:04:56.585Z,14.06
2019-02-22T02:07:26.036Z,14.03
2019-02-22T02:09:55.583Z,14.38
2019-02-22T02:12:25.075Z,14.67
2019-02-22T02:14:54.497Z,14.36
2019-02-22T02:17:26.684Z,14.74
2019-02-22T02:19:56.066Z,14.74
2019-02-22T02:22:28.316Z,14.88
2019-02-22T02:24:57.635Z,14.31
2019-02-22T02:27:28.707Z,14.39
2019-02-22T02:29:58.011Z,14.52
2019-02-22T02:32:30.342Z,14.64
2019-02-22T02:35:00.614Z,14.50
2019-02-22T02:37:31.241Z,14.75
2019-02-22T02:40:02.798Z,14.29
2019-02-22T02:42:31.698Z,14.40
2019-02-22T02:45:02.282Z,13.89
2019-02-22T02:47:34.149Z,14.36
2019-02-22T02:50:02.712Z,14.17
2019-02-22T02:52:32.093Z,14.02
2019-02-22T02:55:01.366Z,13.93
2019-02-22T02:57:30.716Z,13.78
2019-02-22T03:00:00.024Z,13.94
2019-02-22T03:02:31.707Z,13.86
2019-02-22T03:05:00.990Z,13.94
2019-02-22T03:07:41.700Z,13.87
2019-02-22T03:10:10.994Z,13.72
2019-02-22T03:12:40.292Z,13.47
2019-02-22T03:15:11.310Z,13.21
2019-02-22T03:17:40.639Z,13.21
2019-02-22T03:20:10.165Z,13.46
2019-02-22T03:22:44.203Z,13.49
2019-02-22T03:25:15.015Z,13.47
2019-02-22T03:27:44.416Z,13.41
2019-02-22T03:30:13.928Z,13.34
2019-02-22T03:32:43.374Z,13.46
2019-02-22T03:35:12.759Z,13.52
2019-02-22T03:37:44.903Z,13.70
2019-02-22T03:40:17.030Z,13.34
2019-02-22T03:42:46.416Z,13.52
2019-02-22T03:45:15.820Z,13.39
2019-02-22T03:47:46.787Z,13.18
2019-02-22T03:50:19.021Z,13.40
2019-02-22T03:53:07.713Z,13.13
2019-02-22T03:55:36.951Z,13.14
2019-02-22T03:58:06.235Z,13.71
2019-02-22T04:00:35.511Z,13.71
2019-02-22T04:03:04.839Z,13.72
2019-02-22T04:05:34.196Z,13.18
2019-02-22T04:08:03.463Z,13.50
2019-02-22T04:10:32.701Z,13.50
2019-02-22T04:13:01.923Z,13.70
2019-02-22T04:15:31.176Z,13.48
2019-02-22T04:18:00.417Z,13.81
2019-02-22T04:20:29.686Z,13.15
2019-02-22T04:22:58.985Z,13.43
2019-02-22T04:25:28.242Z,13.63
2019-02-22T04:27:57.480Z,13.75
2019-02-22T04:30:26.754Z,13.67
2019-02-22T04:32:55.991Z,13.78
2019-02-22T04:35:25.245Z,13.73
2019-02-22T04:37:54.497Z,13.59
2019-02-22T04:40:23.755Z,13.77
2019-02-22T04:42:52.991Z,13.57
2019-02-22T04:45:22.278Z,13.46
2019-02-22T04:47:51.566Z,13.38
2019-02-22T04:50:20.812Z,13.46
2019-02-22T04:52:50.084Z,13.33
2019-02-22T04:55:19.351Z,13.04
2019-02-22T04:57:48.603Z,12.93
2019-02-22T05:00:17.846Z,13.31
2019-02-22T05:02:47.085Z,13.52
2019-02-22T05:05:16.361Z,13.94
2019-02-22T05:07:45.605Z,14.69
2019-02-22T05:10:14.868Z,14.69
2019-02-22T05:12:44.147Z,15.09
2019-02-22T05:15:13.435Z,15.04
2019-02-22T05:17:42.684Z,14.74
2019-02-22T05:20:11.966Z,14.80
2019-02-22T05:22:41.240Z,14.87
2019-02-22T05:25:10.533Z,15.11
2019-02-22T05:27:39.796Z,15.11
2019-02-22T05:30:09.309Z,15.32
2019-02-22T05:32:38.601Z,15.51
2019-02-22T05:35:07.946Z,14.95
2019-02-22T05:37:37.242Z,15.35
2019-02-22T05:40:06.649Z,14.59
2019-02-22T05:42:35.907Z,14.55
2019-02-22T05:45:05.169Z,14.78
2019-02-22T05:47:34.460Z,14.81
2019-02-22T05:50:03.710Z,14.98
2019-02-22T05:52:32.977Z,15.02
2019-02-22T05:55:02.220Z,15.10
2019-02-22T05:57:31.505Z,15.21
2019-02-22T06:00:00.745Z,14.78
2019-02-22T06:02:30.022Z,14.79
2019-02-22T06:04:59.236Z,14.79
2019-02-22T06:07:28.494Z,14.66
2019-02-22T06:09:58.136Z,14.87
2019-02-22T06:12:34.541Z,15.02
2019-02-22T06:14:58.563Z,15.09
2019-02-22T06:17:27.891Z,15.11
2019-02-22T06:19:57.252Z,14.86
2019-02-22T06:22:29.833Z,14.40
2019-02-22T06:24:57.559Z,14.63
2019-02-22T06:27:26.899Z,14.72
2019-02-22T06:29:56.074Z,14.94
2019-02-22T06:32:25.309Z,14.81
2019-02-22T06:34:54.735Z,14.92
2019-02-22T06:37:24.033Z,14.97
2019-02-22T06:39:53.284Z,14.83
2019-02-22T06:42:22.553Z,14.84
2019-02-22T06:44:51.822Z,14.35
2019-02-22T06:47:22.906Z,14.46
2019-02-22T06:49:52.328Z,14.87
2019-02-22T06:52:21.647Z,14.81
2019-02-22T06:54:50.902Z,14.70
2019-02-22T06:57:20.165Z,14.42
2019-02-22T06:59:49.509Z,14.33
2019-02-22T07:02:18.795Z,14.37
2019-02-22T07:04:48.082Z,14.22
2019-02-22T07:07:17.345Z,14.07
2019-02-22T07:09:46.621Z,14.36
2019-02-22T07:12:26.945Z,14.26
2019-02-22T07:14:56.276Z,14.32
2019-02-22T07:17:25.547Z,14.09
2019-02-22T07:19:54.817Z,14.29
2019-02-22T07:22:24.115Z,14.03
2019-02-22T07:24:53.408Z,13.87
2019-02-22T07:27:22.670Z,14.16
2019-02-22T07:29:51.942Z,13.66
2019-02-22T07:32:21.184Z,14.37
2019-02-22T07:34:50.450Z,14.17
2019-02-22T07:37:19.768Z,14.16
2019-02-22T07:39:49.016Z,13.86
2019-02-22T07:42:18.308Z,15.20
2019-02-22T07:44:47.535Z,15.87
2019-02-22T07:47:16.866Z,15.53
2019-02-22T07:49:46.098Z,14.45
2019-02-22T07:52:15.348Z,14.98
2019-02-22T07:54:44.618Z,15.07
2019-02-22T07:57:13.924Z,14.44
2019-02-22T07:59:43.219Z,14.68
2019-02-22T08:02:12.525Z,14.73
2019-02-22T08:04:41.792Z,14.86
2019-02-22T08:07:11.043Z,14.80
2019-02-22T08:09:40.324Z,15.15
2019-02-22T08:12:09.571Z,14.95
2019-02-22T08:14:38.822Z,14.33
2019-02-22T08:17:08.110Z,14.63
2019-02-22T08:19:37.337Z,14.51
2019-02-22T08:22:06.648Z,15.16
2019-02-22T08:24:35.914Z,14.18
2019-02-22T08:27:05.235Z,15.07
2019-02-22T08:29:34.484Z,14.89
2019-02-22T08:32:03.838Z,14.80
2019-02-22T08:34:33.099Z,15.21
2019-02-22T08:37:02.406Z,14.47
2019-02-22T08:39:31.686Z,15.09
2019-02-22T08:42:00.954Z,14.74
2019-02-22T08:44:30.249Z,14.65
2019-02-22T08:46:59.514Z,14.48
2019-02-22T08:49:28.832Z,14.68
2019-02-22T08:51:58.287Z,14.46
2019-02-22T08:54:27.609Z,14.60
2019-02-22T08:56:56.990Z,14.39
2019-02-22T08:59:26.272Z,14.64
2019-02-22T09:01:55.513Z,15.19
2019-02-22T09:04:24.780Z,15.27
2019-02-22T09:06:54.000Z,14.40
2019-02-22T09:09:23.267Z,15.41
2019-02-22T09:11:52.626Z,15.58
2019-02-22T09:14:21.917Z,15.79
2019-02-22T09:16:51.178Z,15.60
2019-02-22T09:19:20.436Z,14.84
2019-02-22T09:21:49.773Z,14.83
2019-02-22T09:24:19.059Z,14.84
2019-02-22T09:26:48.337Z,14.72
2019-02-22T09:29:17.645Z,14.59
2019-02-22T09:31:46.879Z,14.79
2019-02-22T09:34:16.154Z,14.88
2019-02-22T09:36:45.434Z,15.72
2019-02-22T09:39:15.194Z,15.50
2019-02-22T09:41:44.461Z,15.42
2019-02-22T09:44:13.713Z,15.61
2019-02-22T09:46:43.038Z,15.88
2019-02-22T09:49:12.269Z,15.16
2019-02-22T09:51:41.567Z,14.88
2019-02-22T09:54:10.806Z,15.13
2019-02-22T09:56:40.070Z,14.91
2019-02-22T09:59:09.349Z,15.35
2019-02-22T10:01:38.606Z,16.18
2019-02-22T10:04:07.848Z,16.49
2019-02-22T10:06:37.109Z,16.61
2019-02-22T10:09:06.645Z,16.53
2019-02-22T10:11:35.911Z,16.00
2019-02-22T10:14:06.978Z,16.44
2019-02-22T10:16:36.146Z,16.26
2019-02-22T10:19:05.368Z,16.40
2019-02-22T10:21:34.661Z,16.62
2019-02-22T10:24:03.958Z,16.88
2019-02-22T10:26:33.250Z,17.08
2019-02-22T10:29:02.514Z,16.75
2019-02-22T10:31:31.802Z,16.42
2019-02-22T10:34:01.059Z,17.50
2019-02-22T10:36:30.304Z,17.24
2019-02-22T10:38:59.600Z,16.74
2019-02-22T10:41:28.862Z,17.25
2019-02-22T10:43:58.132Z,16.95
2019-02-22T10:46:27.387Z,16.51
2019-02-22T10:48:56.634Z,16.07
2019-02-22T10:51:25.909Z,16.06
2019-02-22T10:53:55.199Z,16.38
2019-02-22T10:56:24.457Z,16.31
2019-02-22T10:58:53.722Z,16.83
2019-02-22T11:01:22.947Z,16.52
2019-02-22T11:03:52.191Z,17.01
2019-02-22T11:06:21.440Z,17.14
2019-02-22T11:08:50.733Z,17.35
2019-02-22T11:11:19.975Z,17.40
2019-02-22T11:13:49.300Z,16.97
2019-02-22T11:16:18.592Z,17.10
2019-02-22T11:18:47.867Z,16.64
2019-02-22T11:21:17.181Z,17.12
2019-02-22T11:23:46.588Z,17.23
2019-02-22T11:26:15.923Z,17.28
2019-02-22T11:28:45.193Z,17.49
2019-02-22T11:31:15.093Z,17.46
2019-02-22T11:33:44.384Z,17.31
2019-02-22T11:36:13.706Z,17.40
2019-02-22T11:38:42.967Z,17.30
2019-02-22T11:41:12.247Z,16.83
2019-02-22T11:43:41.523Z,18.06
2019-02-22T11:46:10.807Z,17.79
2019-02-22T11:48:40.232Z,17.61
2019-02-22T11:51:09.510Z,17.39
2019-02-22T11:53:38.756Z,16.69
2019-02-22T11:56:08.127Z,16.50
2019-02-22T11:58:37.368Z,16.66
2019-02-22T12:01:08.985Z,16.42
2019-02-22T12:03:38.285Z,17.55
2019-02-22T12:06:07.578Z,17.55
2019-02-22T12:08:36.809Z,17.43
2019-02-22T12:11:06.174Z,18.40
2019-02-22T12:13:35.465Z,18.35
2019-02-22T12:16:04.762Z,18.60
2019-02-22T12:18:36.443Z,18.05
2019-02-22T12:21:05.134Z,17.56
2019-02-22T12:23:34.450Z,16.84
2019-02-22T12:26:03.816Z,18.14
2019-02-22T12:28:33.083Z,17.85
2019-02-22T12:31:02.464Z,17.50
2019-02-22T12:33:31.722Z,17.77
2019-02-22T12:36:01.017Z,17.91
2019-02-22T12:38:30.318Z,18.06
2019-02-22T12:40:59.609Z,18.11
2019-02-22T12:43:28.841Z,18.00
2019-02-22T12:45:58.149Z,18.51
2019-02-22T12:48:27.516Z,18.51
2019-02-22T12:50:56.780Z,19.57
2019-02-22T12:53:26.202Z,20.12
2019-02-22T12:55:55.521Z,19.08
2019-02-22T12:58:24.962Z,19.18
2019-02-22T13:00:54.294Z,19.09
2019-02-22T13:03:23.621Z,19.05
2019-02-22T13:05:52.904Z,18.98
2019-02-22T13:08:22.184Z,18.33
2019-02-22T13:10:51.461Z,17.86
2019-02-22T13:13:20.784Z,17.95
2019-02-22T13:15:50.097Z,17.67
2019-02-22T13:18:19.392Z,17.58
2019-02-22T13:20:48.643Z,17.40
2019-02-22T13:23:17.973Z,17.96
2019-02-22T13:25:47.397Z,17.83
2019-02-22T13:28:16.680Z,17.95
2019-02-22T13:30:46.030Z,17.89
2019-02-22T13:33:15.450Z,18.09
2019-02-22T13:35:44.771Z,18.63
2019-02-22T13:38:14.058Z,19.25
2019-02-22T13:40:43.367Z,18.53
2019-02-22T13:43:12.697Z,19.29
2019-02-22T13:45:41.997Z,18.80
2019-02-22T13:48:11.264Z,18.70
2019-02-22T13:50:40.574Z,19.35
2019-02-22T13:53:09.861Z,18.93
2019-02-22T13:55:39.184Z,18.67
2019-02-22T13:58:08.455Z,18.52
2019-02-22T14:00:37.787Z,18.93
2019-02-22T14:03:07.052Z,18.74
2019-02-22T14:05:36.388Z,18.53
2019-02-22T14:08:05.714Z,18.77
2019-02-22T14:10:35.005Z,19.32
2019-02-22T14:13:04.308Z,19.78
2019-02-22T14:15:37.950Z,19.22
2019-02-22T14:18:04.679Z,19.10
2019-02-22T14:20:34.009Z,18.71
2019-02-22T14:23:03.801Z,18.66
2019-02-22T14:25:33.280Z,18.96
2019-02-22T14:28:02.602Z,19.30
2019-02-22T14:30:31.888Z,18.61
2019-02-22T14:33:01.147Z,18.46
2019-02-22T14:35:30.552Z,17.88
2019-02-22T14:38:02.325Z,18.06
2019-02-22T14:40:31.685Z,17.85
2019-02-22T14:43:03.386Z,18.64
2019-02-22T14:45:32.676Z,18.77
2019-02-22T14:48:01.922Z,18.03
2019-02-22T14:50:31.208Z,18.23
2019-02-22T14:53:00.520Z,18.19
2019-02-22T14:55:29.881Z,18.33
2019-02-22T14:58:01.226Z,17.50
2019-02-22T15:00:30.534Z,17.80
2019-02-22T15:02:59.837Z,18.01
2019-02-22T15:05:29.212Z,18.25
2019-02-22T15:07:58.534Z,18.24
2019-02-22T15:10:27.843Z,17.89
2019-02-22T15:12:57.208Z,18.09
2019-02-22T15:15:37.877Z,17.81
2019-02-22T15:18:07.765Z,17.35
2019-02-22T15:20:36.994Z,17.25
2019-02-22T15:23:06.299Z,17.43
2019-02-22T15:25:35.881Z,17.32
2019-02-22T15:28:06.498Z,17.66
2019-02-22T15:30:36.163Z,17.28
2019-02-22T15:33:05.775Z,17.66
2019-02-22T15:35:35.205Z,16.83
2019-02-22T15:38:04.722Z,17.22
2019-02-22T15:40:35.228Z,17.49
2019-02-22T15:43:04.563Z,17.21
2019-02-22T15:45:33.922Z,16.99
2019-02-22T15:48:04.731Z,17.08
2019-02-22T15:50:34.029Z,17.19
2019-02-22T15:53:03.460Z,17.39
2019-02-22T15:55:32.830Z,17.67
2019-02-22T15:58:02.110Z,17.72
2019-02-22T16:00:31.922Z,17.18
2019-02-22T16:03:01.224Z,16.99
2019-02-22T16:05:35.833Z,16.42
2019-02-22T16:08:07.403Z,17.11
2019-02-22T16:10:36.344Z,17.01
2019-02-22T16:13:14.369Z,16.74
2019-02-22T16:15:43.686Z,16.73
2019-02-22T16:18:15.582Z,16.82
2019-02-22T16:20:48.074Z,16.94
2019-02-22T16:23:17.516Z,16.49
2019-02-22T16:25:49.235Z,16.96
2019-02-22T16:28:18.535Z,16.71
2019-02-22T16:30:48.119Z,16.70
2019-02-22T16:33:17.389Z,16.24
2019-02-22T16:35:47.072Z,16.20
2019-02-22T16:38:16.363Z,16.10
2019-02-22T16:40:45.674Z,16.25
2019-02-22T16:43:14.930Z,16.21
2019-02-22T16:45:44.226Z,16.59
2019-02-22T16:48:13.649Z,16.44
2019-02-22T16:50:45.319Z,16.33
2019-02-22T16:53:14.622Z,16.30
2019-02-22T16:55:44.112Z,16.22
2019-02-22T16:58:13.418Z,16.20
2019-02-22T17:01:32.738Z,16.19
2019-02-22T17:04:01.784Z,15.83
2019-02-22T17:06:34.267Z,16.18
2019-02-22T17:09:06.787Z,15.94
2019-02-22T17:11:36.096Z,16.38
2019-02-22T17:14:05.450Z,16.17
2019-02-22T17:16:45.276Z,16.15
2019-02-22T17:19:34.130Z,16.10
2019-02-22T17:22:09.741Z,16.03
2019-02-22T17:24:40.739Z,16.13
2019-02-22T17:27:31.262Z,16.13
2019-02-22T17:30:00.734Z,16.00
2019-02-22T17:32:33.933Z,15.89
2019-02-22T17:35:04.429Z,15.58
2019-02-22T17:37:33.794Z,15.94
2019-02-22T17:40:03.117Z,15.88
2019-02-22T17:42:32.430Z,15.86
2019-02-22T17:45:01.732Z,15.70
2019-02-22T17:47:33.836Z,15.53
2019-02-22T17:50:03.104Z,15.82
2019-02-22T17:52:32.381Z,15.77
2019-02-22T17:55:01.752Z,15.76
2019-02-22T17:57:33.928Z,15.44
2019-02-22T18:00:03.313Z,15.55
2019-02-22T18:02:32.625Z,15.57
2019-02-22T18:05:02.014Z,15.68
2019-02-22T18:07:34.314Z,15.56
2019-02-22T18:10:03.651Z,15.59
2019-02-22T18:12:32.961Z,15.57
2019-02-22T18:15:02.264Z,15.47
2019-02-22T18:17:34.497Z,15.60
2019-02-22T18:20:03.792Z,15.27
2019-02-22T18:22:33.082Z,15.39
2019-02-22T18:25:02.462Z,15.39
2019-02-22T18:27:35.959Z,15.26
2019-02-22T18:30:05.853Z,15.23
2019-02-22T18:32:35.179Z,15.09
2019-02-22T18:35:31.703Z,15.21
2019-02-22T18:38:01.169Z,15.20
2019-02-22T18:40:33.562Z,15.13
2019-02-22T18:43:02.934Z,15.12
2019-02-22T18:45:35.335Z,14.95
2019-02-22T18:48:04.614Z,14.79
2019-02-22T18:50:33.966Z,15.20
2019-02-22T18:53:03.244Z,15.24
2019-02-22T18:55:32.590Z,14.89
2019-02-22T18:58:01.901Z,14.68
2019-02-22T19:00:34.360Z,14.95
2019-02-22T19:03:03.668Z,15.16
2019-02-22T19:05:33.058Z,14.71
2019-02-22T19:08:02.363Z,14.56
2019-02-22T19:10:31.789Z,14.50
2019-02-22T19:13:01.114Z,14.33
2019-02-22T19:15:33.252Z,14.43
2019-02-22T19:18:02.609Z,14.34
2019-02-22T19:20:35.117Z,14.00
2019-02-22T19:23:04.448Z,14.16
2019-02-22T19:25:33.718Z,13.99
2019-02-22T19:28:03.076Z,13.81
2019-02-22T19:30:32.363Z,13.73
2019-02-22T19:33:01.752Z,13.87
2019-02-22T19:35:33.899Z,13.47
2019-02-22T19:43:44.776Z,13.39
2019-02-22T19:46:14.060Z,13.54
2019-02-22T19:48:43.408Z,13.36
2019-02-22T19:51:12.712Z,13.54
2019-02-22T19:53:42.046Z,13.42
2019-02-22T19:56:11.373Z,13.41
2019-02-22T19:58:50.589Z,13.22
2019-02-22T20:01:19.944Z,13.43
2019-02-22T20:03:49.242Z,13.31
2019-02-22T20:06:22.997Z,13.14
2019-02-22T20:08:52.330Z,13.22
2019-02-22T20:11:21.930Z,13.02
2019-02-22T20:13:51.458Z,12.88
2019-02-22T20:16:20.937Z,13.08
2019-02-22T20:18:50.341Z,12.98
2019-02-22T20:21:19.799Z,13.08
2019-02-22T20:24:17.738Z,12.95
2019-02-22T20:26:47.075Z,12.85
2019-02-22T20:29:16.681Z,12.98
2019-02-22T20:31:46.036Z,12.95
2019-02-22T20:34:15.572Z,12.83
2019-02-22T20:36:44.950Z,13.16
2019-02-22T20:39:14.271Z,13.04
2019-02-22T20:41:46.996Z,12.94
2019-02-22T20:44:16.366Z,12.76
2019-02-22T20:47:00.978Z,12.89
2019-02-22T20:49:30.880Z,12.79
2019-02-22T20:52:00.385Z,12.51
2019-02-22T20:54:29.774Z,12.51
2019-02-22T20:56:59.114Z,12.62
2019-02-22T20:59:52.353Z,12.56
2019-02-22T21:02:20.708Z,12.64
2019-02-22T21:05:10.711Z,12.61
2019-02-22T21:07:40.005Z,12.43
2019-02-22T21:10:11.675Z,12.34
2019-02-22T21:12:41.133Z,12.36
2019-02-22T21:19:30.339Z,12.16
2019-02-22T21:26:29.858Z,11.94
2019-02-22T21:37:31.692Z,12.11
2019-02-22T21:55:30.961Z,11.87
2019-02-22T22:01:40.855Z,11.66
2019-02-22T22:04:10.335Z,11.80
2019-02-22T22:06:39.717Z,11.61
2019-02-22T22:09:09.173Z,11.84
2019-02-22T22:11:38.604Z,11.44
2019-02-22T22:14:08.046Z,11.37
2019-02-22T22:16:37.504Z,11.50
2019-02-22T22:19:06.855Z,11.60
2019-02-22T22:21:36.291Z,11.52
2019-02-22T22:24:05.747Z,11.46
2019-02-22T22:26:35.103Z,11.30
2019-02-22T22:29:04.588Z,11.18
2019-02-22T22:31:33.966Z,11.20
2019-02-22T22:34:03.301Z,11.39
2019-02-22T22:36:32.629Z,11.10
2019-02-22T22:39:01.959Z,11.03
2019-02-22T22:41:31.279Z,10.90
2019-02-22T22:44:00.735Z,10.94
2019-02-22T22:46:36.929Z,11.06
2019-02-22T22:49:01.421Z,11.04
2019-02-22T22:51:30.752Z,10.80
2019-02-22T22:54:00.137Z,10.89
2019-02-22T22:56:29.436Z,10.84
2019-02-22T22:58:58.808Z,10.89
2019-02-22T23:01:29.902Z,10.99
2019-02-22T23:03:59.337Z,10.80
2019-02-22T23:06:28.736Z,10.60
2019-02-22T23:08:58.155Z,10.63
2019-02-22T23:11:27.571Z,10.53
2019-02-22T23:13:56.977Z,10.41
2019-02-22T23:16:26.342Z,10.44
2019-02-22T23:19:01.812Z,10.64
2019-02-22T23:21:26.789Z,10.49
2019-02-22T23:23:56.133Z,10.61
2019-02-22T23:26:25.539Z,10.71
2019-02-22T23:28:55.950Z,10.40
2019-02-22T23:31:25.249Z,10.31
2019-02-22T23:33:54.565Z,10.39
2019-02-22T23:36:23.941Z,10.58
2019-02-22T23:38:53.305Z,10.33
2019-02-22T23:41:22.630Z,10.40
2019-02-22T23:43:52.035Z,10.44
2019-02-22T23:46:21.388Z,10.18
2019-02-22T23:48:50.704Z,10.41
2019-02-22T23:51:20.058Z,10.25
2019-02-22T23:53:49.420Z,9.95
2019-02-22T23:56:18.769Z,10.13
2019-02-22T23:58:48.061Z,9.95
